Pagina principale
METAR-TAF:

METAR-TAF

Aeroporti :

Johannesburg, Sudafrica

latitudine: 26-09S, longitudine: 28-00E, altezza: 1626 m

Osservazione

Il bollettino è stato emesso 14 ore e 40 minuti fa, alle 05:00 UTC
Vento calmo
Temperature 10°C
Umidità 62%
Pressione 1023 hPa

METAR: FAJB 210500Z AUTO 00000KT //// // ////// 10/03 Q1023

Ora: 21:40 (19:40 UTC)


TAF: mancante

Osservazioni e previsioni meteorologiche di più di 4000 aeroporti (messaggi METAR e TAF).

Le stazioni disponibili sono rappresentate dai dischi gialli e rossi sulla carta.

Puntare il mouse per vedere il nome della stazione.

Clicca sopra per visualizzare le osservazioni e previsioni meteorologiche.

Per cambiare la mappa : fare clic sui pulsanti verdi con una croce nera per ingrandire, il pulsante verde con un trattino per diminuire, o sulla freccia verde per le mappe adiacenti.


METAR-TAF: